Time;durP1;ratioP1;P1;durP2;ratioP2;P2;SDS_P1;SDS_P2;PMS_P1;PMS_P2;Temp;Humidity;BMP_temperature;BMP_pressure;BME280_temperature;BME280_humidity;BME280_pressure;Samples;Min_cycle;Max_cycle;Signal;HPM_P1;HPM_P2
2022/11/20 00:00:16;;;;;;;15.55;9.43;;;;;;;0.68;100.00;100639.91;5067292;28;20613;-75
2022/11/20 00:02:45;;;;;;;13.52;8.90;;;;;;;0.62;100.00;100638.69;5056647;28;20264;-75
2022/11/20 00:05:14;;;;;;;20.35;10.10;;;;;;;0.73;100.00;100637.66;5056379;28;20197;-73
2022/11/20 00:07:43;;;;;;;13.00;8.40;;;;;;;0.67;100.00;100632.94;5056820;28;20188;-75
2022/11/20 00:10:12;;;;;;;13.82;9.10;;;;;;;0.69;100.00;100638.94;5049628;28;20217;-74
2022/11/20 00:12:42;;;;;;;19.95;10.70;;;;;;;0.51;100.00;100636.19;5058412;28;20192;-74
2022/11/20 00:15:12;;;;;;;10.93;8.52;;;;;;;0.53;100.00;100638.72;5057537;28;20189;-74
2022/11/20 00:17:42;;;;;;;12.52;8.52;;;;;;;0.66;100.00;100633.91;5057536;28;20617;-74
2022/11/20 00:20:15;;;;;;;11.00;8.52;;;;;;;0.59;100.00;100638.97;5058094;28;20212;-74
2022/11/20 00:22:44;;;;;;;13.30;8.98;;;;;;;0.67;100.00;100643.59;5066757;28;20534;-73
2022/11/20 00:25:16;;;;;;;14.82;7.97;;;;;;;0.64;100.00;100643.84;5057470;28;20251;-74
2022/11/20 00:27:46;;;;;;;14.65;9.27;;;;;;;0.62;99.99;100640.50;5057459;28;20193;-75
2022/11/20 00:30:16;;;;;;;16.58;8.52;;;;;;;0.64;100.00;100635.84;5057371;28;20219;-75
2022/11/20 00:32:45;;;;;;;14.00;7.35;;;;;;;0.65;99.84;100634.88;5056044;28;20189;-74
2022/11/20 00:35:14;;;;;;;11.45;8.00;;;;;;;0.55;99.96;100636.72;5058513;28;20667;-73
2022/11/20 00:37:46;;;;;;;13.15;8.95;;;;;;;0.76;100.00;100632.06;5056870;28;20180;-74
2022/11/20 00:40:18;;;;;;;17.92;8.90;;;;;;;0.78;99.12;100641.56;5056792;28;20718;-74
2022/11/20 00:42:48;;;;;;;14.13;7.68;;;;;;;0.61;98.89;100645.00;5055016;28;20192;-74
2022/11/20 00:45:17;;;;;;;11.18;6.70;;;;;;;0.64;99.43;100641.19;5056869;28;20200;-74
2022/11/20 00:47:46;;;;;;;15.55;9.73;;;;;;;0.67;99.10;100643.59;5055744;28;20271;-73
2022/11/20 00:50:15;;;;;;;21.98;9.80;;;;;;;0.69;98.97;100641.59;5061768;28;20209;-75
2022/11/20 00:52:48;;;;;;;17.85;9.43;;;;;;;0.62;98.74;100628.03;5063426;28;20176;-74
2022/11/20 00:55:17;;;;;;;14.13;9.20;;;;;;;0.66;99.04;100629.41;5058430;28;20537;-74
2022/11/20 00:57:47;;;;;;;10.63;7.47;;;;;;;0.66;98.79;100632.09;5058823;28;20196;-74
2022/11/20 01:00:16;;;;;;;11.60;8.15;;;;;;;0.59;98.98;100635.44;5074873;22;20215;-72
2022/11/20 01:02:45;;;;;;;16.98;8.32;;;;;;;0.61;98.76;100638.81;5060697;28;20192;-74
2022/11/20 01:05:14;;;;;;;12.38;9.82;;;;;;;0.66;98.12;100641.91;5055476;28;20644;-74
2022/11/20 01:07:43;;;;;;;14.07;9.27;;;;;;;0.58;98.05;100639.13;5038579;28;20685;-74
2022/11/20 01:10:12;;;;;;;14.90;9.15;;;;;;;0.66;98.69;100633.91;5049479;28;20225;-73
2022/11/20 01:12:41;;;;;;;17.50;8.48;;;;;;;0.58;98.76;100631.13;5035271;28;20610;-73
2022/11/20 01:15:11;;;;;;;11.88;8.38;;;;;;;0.73;98.88;100632.31;5051522;28;20193;-74
2022/11/20 01:17:40;;;;;;;12.20;8.65;;;;;;;0.65;98.52;100633.06;5037631;28;20197;-74
2022/11/20 01:20:11;;;;;;;13.18;8.30;;;;;;;0.69;98.78;100628.28;5041739;28;20673;-74
2022/11/20 01:22:39;;;;;;;12.32;8.75;;;;;;;0.73;98.25;100633.16;5033687;28;20193;-73
2022/11/20 01:25:09;;;;;;;12.82;8.85;;;;;;;0.75;97.56;100641.88;5039138;28;20684;-74
2022/11/20 01:27:38;;;;;;;15.10;7.40;;;;;;;0.61;97.72;100631.69;5049533;28;20193;-74
2022/11/20 01:30:08;;;;;;;19.67;8.75;;;;;;;0.68;97.52;100629.25;5051852;28;20200;-73
2022/11/20 01:32:38;;;;;;;13.43;8.18;;;;;;;0.66;97.45;100625.91;5031962;28;20189;-74
2022/11/20 01:35:09;;;;;;;14.52;8.27;;;;;;;0.67;97.58;100627.59;5024921;28;20191;-73
2022/11/20 01:37:38;;;;;;;13.90;9.02;;;;;;;0.67;96.79;100622.28;5049969;28;20185;-74
2022/11/20 01:40:08;;;;;;;17.98;8.68;;;;;;;0.58;96.51;100623.16;5035051;28;20643;-74
2022/11/20 01:45:53;;;;;;;14.25;7.68;;;;;;;0.54;97.06;100611.09;5001808;28;20213;-74
2022/11/20 01:48:27;;;;;;;21.45;9.38;;;;;;;0.52;96.44;100618.38;5034557;28;20185;-74
2022/11/20 01:50:58;;;;;;;13.27;8.18;;;;;;;0.59;96.58;100619.47;5034410;28;20232;-74
2022/11/20 01:53:33;;;;;;;21.58;10.23;;;;;;;0.57;96.95;100619.63;5034489;28;20201;-74
2022/11/20 01:56:06;;;;;;;12.68;7.47;;;;;;;0.48;96.65;100611.69;5014850;28;20178;-71
2022/11/20 01:58:39;;;;;;;20.45;10.13;;;;;;;0.59;96.57;100611.50;5015422;28;20313;-73
2022/11/20 02:01:09;;;;;;;15.52;8.40;;;;;;;0.58;96.18;100612.50;5036010;28;20229;-73
2022/11/20 02:03:39;;;;;;;14.20;8.40;;;;;;;0.48;96.46;100611.69;5051469;28;20679;-74
2022/11/20 02:06:16;;;;;;;15.45;9.52;;;;;;;0.57;96.25;100611.66;5028650;28;20205;-73
2022/11/20 02:08:45;;;;;;;16.13;9.07;;;;;;;0.46;95.76;100603.00;5034479;28;20189;-73
2022/11/20 02:11:14;;;;;;;11.88;7.43;;;;;;;0.40;96.51;100602.59;5034021;28;20240;-73
2022/11/20 02:13:45;;;;;;;15.68;8.93;;;;;;;0.50;95.65;100597.22;5037266;28;20192;-73
2022/11/20 02:16:17;;;;;;;18.35;11.65;;;;;;;0.47;95.86;100599.34;5040468;28;20301;-73
2022/11/20 02:18:48;;;;;;;13.70;8.20;;;;;;;0.38;95.59;100596.56;5018795;28;20685;-74
2022/11/20 02:21:31;;;;;;;13.10;8.85;;;;;;;0.35;95.87;100604.00;5035509;28;20210;-74
2022/11/20 02:24:15;;;;;;;12.02;8.32;;;;;;;0.32;96.22;100602.47;5041763;28;20201;-74
2022/11/20 02:26:50;;;;;;;14.77;8.15;;;;;;;0.38;96.46;100596.56;5034864;28;20190;-73
2022/11/20 02:29:24;;;;;;;11.77;8.27;;;;;;;0.50;96.31;100599.06;5034943;28;20584;-73
2022/11/20 02:31:55;;;;;;;15.05;10.00;;;;;;;0.48;96.70;100601.88;5034087;28;20208;-72
2022/11/20 02:34:24;;;;;;;14.70;8.00;;;;;;;0.56;96.30;100593.16;5030532;28;20194;-73
2022/11/20 02:36:54;;;;;;;15.05;8.80;;;;;;;0.56;96.57;100595.81;5041209;28;20197;-73
2022/11/20 02:39:28;;;;;;;15.48;9.60;;;;;;;0.50;95.51;100601.72;5053187;28;20205;-73
2022/11/20 02:41:58;;;;;;;15.65;9.57;;;;;;;0.45;95.79;100596.81;5053305;28;20204;-73
2022/11/20 02:44:27;;;;;;;14.13;10.52;;;;;;;0.46;95.77;100595.00;5032453;28;20254;-73
2022/11/20 02:46:58;;;;;;;15.57;9.55;;;;;;;0.54;95.52;100589.78;5053258;28;20276;-74
2022/11/20 02:49:28;;;;;;;17.63;11.52;;;;;;;0.44;95.13;100598.63;5034541;28;20189;-74
2022/11/20 02:51:56;;;;;;;13.20;10.07;;;;;;;0.48;95.25;100596.56;5033206;28;20209;-74
2022/11/20 02:54:27;;;;;;;15.77;8.93;;;;;;;0.35;95.35;100602.16;5033574;28;20190;-72
2022/11/20 02:56:56;;;;;;;18.08;10.57;;;;;;;0.39;96.16;100603.56;5033025;28;20193;-73
2022/11/20 02:59:25;;;;;;;12.73;8.88;;;;;;;0.31;95.91;100595.47;5026742;28;20207;-73
2022/11/20 03:01:54;;;;;;;18.20;10.05;;;;;;;0.40;96.48;100605.25;5039283;28;20278;-72
2022/11/20 03:04:22;;;;;;;22.75;12.23;;;;;;;0.42;96.27;100597.97;5048030;28;20251;-73
2022/11/20 03:06:51;;;;;;;29.02;9.90;;;;;;;0.43;95.63;100599.66;5028128;28;20190;-74
2022/11/20 03:09:20;;;;;;;16.27;10.70;;;;;;;0.47;95.44;100594.03;5033673;28;20271;-74
2022/11/20 03:11:51;;;;;;;14.73;9.63;;;;;;;0.53;94.92;100599.63;5039332;28;20227;-74
2022/11/20 03:14:20;;;;;;;22.52;10.43;;;;;;;0.44;95.51;100588.00;5032012;28;20728;-74
2022/11/20 03:16:48;;;;;;;14.32;10.80;;;;;;;0.49;95.68;100589.38;5033747;28;20189;-73
2022/11/20 03:19:17;;;;;;;15.80;8.95;;;;;;;0.46;95.73;100584.34;5052065;28;20211;-73
2022/11/20 03:21:47;;;;;;;14.57;8.30;;;;;;;0.48;95.50;100585.06;5059982;28;20211;-74
2022/11/20 03:24:16;;;;;;;18.63;10.60;;;;;;;0.39;95.84;100579.59;5057209;28;20192;-74
2022/11/20 03:26:44;;;;;;;14.85;9.75;;;;;;;0.48;95.61;100579.72;5062416;28;20262;-74
2022/11/20 03:29:15;;;;;;;14.23;8.40;;;;;;;0.48;95.24;100577.91;5056867;28;20185;-74
2022/11/20 03:31:43;;;;;;;17.45;8.50;;;;;;;0.42;95.07;100576.66;5033293;28;20212;-73
2022/11/20 03:34:13;;;;;;;14.13;8.88;;;;;;;0.47;95.73;100572.72;5033321;28;20220;-74
2022/11/20 03:36:43;;;;;;;19.13;10.05;;;;;;;0.34;96.04;100575.69;5046224;28;20204;-74
2022/11/20 03:39:12;;;;;;;17.80;8.73;;;;;;;0.35;96.26;100574.72;5052852;28;20545;-74
2022/11/20 03:41:43;;;;;;;13.30;9.45;;;;;;;0.53;95.78;100574.81;5052591;28;20231;-74
2022/11/20 03:44:14;;;;;;;16.63;10.35;;;;;;;0.47;95.19;100567.41;5045501;28;20197;-73
2022/11/20 03:46:43;;;;;;;16.95;9.60;;;;;;;0.38;95.47;100564.63;5046988;28;20197;-73
2022/11/20 03:49:12;;;;;;;21.02;10.98;;;;;;;0.53;95.52;100564.16;5025195;28;20225;-75
2022/11/20 03:51:41;;;;;;;15.93;9.00;;;;;;;0.55;94.93;100565.69;5021265;28;20268;-73
2022/11/20 03:54:09;;;;;;;13.50;9.15;;;;;;;0.52;95.12;100559.81;5032800;28;20189;-74
2022/11/20 03:56:40;;;;;;;15.30;10.40;;;;;;;0.33;95.12;100566.88;5032712;28;20228;-72
2022/11/20 04:02:40;;;;;;;15.63;9.48;;;;;;;0.54;95.50;100561.34;5039918;28;20196;-73
2022/11/20 04:05:09;;;;;;;15.15;9.35;;;;;;;0.49;95.89;100560.09;5047605;28;20197;-73
2022/11/20 04:07:38;;;;;;;13.63;9.27;;;;;;;0.44;95.12;100558.72;5041245;28;20665;-73
2022/11/20 04:10:08;;;;;;;14.75;10.15;;;;;;;0.46;95.06;100558.56;5038692;28;20200;-73
2022/11/20 04:12:37;;;;;;;20.13;10.23;;;;;;;0.40;95.24;100552.00;5037368;28;20182;-72
2022/11/20 04:15:06;;;;;;;15.10;10.35;;;;;;;0.35;94.82;100559.59;5035952;28;20231;-72
2022/11/20 04:17:35;;;;;;;14.43;9.73;;;;;;;0.26;95.46;100562.28;5038837;28;20199;-72
2022/11/20 04:20:06;;;;;;;19.70;11.20;;;;;;;0.24;95.65;100562.41;5042014;28;20201;-73
2022/11/20 04:22:35;;;;;;;19.75;10.23;;;;;;;0.24;95.73;100562.41;5038698;28;20224;-73
2022/11/20 04:25:05;;;;;;;16.35;9.93;;;;;;;0.28;95.36;100558.50;5054720;28;20674;-74
2022/11/20 04:27:34;;;;;;;15.00;9.90;;;;;;;0.31;95.40;100568.84;5025534;28;20235;-74
2022/11/20 04:30:03;;;;;;;18.60;10.50;;;;;;;0.25;95.63;100564.09;5034505;28;20204;-73
2022/11/20 04:32:32;;;;;;;16.15;9.27;;;;;;;0.26;95.23;100559.59;5035803;28;20185;-74
2022/11/20 04:35:00;;;;;;;16.65;9.13;;;;;;;0.25;95.34;100569.41;5035809;28;20280;-73
2022/11/20 04:37:31;;;;;;;14.23;9.65;;;;;;;0.30;94.85;100561.84;5035577;28;20193;-73
2022/11/20 04:40:00;;;;;;;16.90;10.52;;;;;;;0.24;94.74;100559.75;5038032;28;20239;-73
2022/11/20 04:42:32;;;;;;;14.55;10.23;;;;;;;0.19;95.19;100561.19;5053583;28;20186;-73
2022/11/20 04:45:01;;;;;;;14.38;10.13;;;;;;;0.27;94.46;100556.81;5046629;28;20185;-74
2022/11/20 04:47:29;;;;;;;19.35;10.65;;;;;;;0.19;94.79;100554.03;5045332;28;20192;-73
2022/11/20 04:49:58;;;;;;;15.70;10.35;;;;;;;0.28;94.75;100557.66;5055128;28;20272;-74
2022/11/20 04:52:27;;;;;;;27.25;12.95;;;;;;;0.14;95.12;100550.97;5039037;28;20302;-73
2022/11/20 04:54:58;;;;;;;15.05;9.80;;;;;;;0.15;95.30;100555.28;5036042;28;20666;-74
2022/11/20 04:57:27;;;;;;;24.15;12.20;;;;;;;0.22;95.30;100553.75;5044540;28;20254;-74
2022/11/20 04:59:55;;;;;;;23.48;10.88;;;;;;;0.16;95.15;100550.81;5038208;28;20299;-72
2022/11/20 05:02:24;;;;;;;15.52;11.63;;;;;;;0.17;95.67;100548.00;5052010;28;20188;-72
2022/11/20 05:04:54;;;;;;;11.57;10.32;;;;;;;0.26;95.97;100544.47;5054764;28;20232;-73
2022/11/20 05:07:23;;;;;;;13.55;10.10;;;;;;;0.28;95.26;100542.53;5036276;28;20193;-73
2022/11/20 05:09:52;;;;;;;13.07;8.93;;;;;;;0.16;95.25;100538.34;5034973;28;20599;-73
2022/11/20 05:12:22;;;;;;;18.67;9.93;;;;;;;0.13;96.34;100537.81;5042279;28;20658;-73
2022/11/20 05:14:51;;;;;;;19.75;12.02;;;;;;;0.20;95.83;100536.22;5035075;28;20592;-73
2022/11/20 05:17:20;;;;;;;20.17;12.63;;;;;;;0.17;95.94;100526.72;5035116;28;20212;-73
2022/11/20 05:19:49;;;;;;;17.42;9.45;;;;;;;0.23;95.94;100531.47;5030898;28;20201;-74
2022/11/20 05:22:21;;;;;;;16.30;11.05;;;;;;;0.25;96.06;100531.31;5015157;28;20272;-73
2022/11/20 05:24:50;;;;;;;20.33;8.50;;;;;;;0.21;96.47;100522.78;5015131;28;20186;-74
2022/11/20 05:27:18;;;;;;;17.05;11.93;;;;;;;0.21;96.76;100522.78;5039858;28;20189;-74
2022/11/20 05:29:49;;;;;;;19.73;11.60;;;;;;;0.25;96.17;100520.66;5040041;28;20224;-73
2022/11/20 05:32:18;;;;;;;17.40;9.85;;;;;;;0.21;95.87;100530.78;5027024;28;20186;-73
2022/11/20 05:34:46;;;;;;;21.77;11.45;;;;;;;0.31;95.96;100530.75;5036447;28;20186;-73
2022/11/20 05:37:15;;;;;;;17.65;10.65;;;;;;;0.29;96.03;100524.75;5044734;28;20211;-72
2022/11/20 05:39:44;;;;;;;14.60;8.90;;;;;;;0.31;96.05;100520.94;5039628;28;20668;-72
2022/11/20 05:42:31;;;;;;;22.15;11.48;;;;;;;0.28;96.43;100520.41;5050328;28;20718;-72
2022/11/20 05:45:03;;;;;;;16.60;9.38;;;;;;;0.20;96.07;100522.94;5014891;28;20220;-74
2022/11/20 05:47:35;;;;;;;11.68;7.72;;;;;;;0.18;96.76;100520.44;5034347;28;20170;-73
2022/11/20 05:50:05;;;;;;;18.52;12.07;;;;;;;0.26;96.27;100517.03;5039555;28;20205;-73
2022/11/20 05:52:34;;;;;;;16.13;10.52;;;;;;;0.26;96.03;100512.56;5038569;28;20185;-74
2022/11/20 05:55:03;;;;;;;16.33;10.07;;;;;;;0.29;96.29;100512.25;5034217;28;20185;-72
2022/11/20 05:57:32;;;;;;;17.23;11.13;;;;;;;0.32;96.19;100501.31;5028864;28;20245;-73
2022/11/20 06:00:03;;;;;;;16.95;11.43;;;;;;;0.36;96.05;100512.50;5044787;28;20688;-73
2022/11/20 06:02:35;;;;;;;12.50;8.90;;;;;;;0.30;96.17;100513.94;5033776;28;20231;-73
2022/11/20 06:05:04;;;;;;;16.15;9.48;;;;;;;0.31;96.59;100504.97;5034054;28;20724;-73
2022/11/20 06:07:33;;;;;;;16.40;10.20;;;;;;;0.34;96.38;100504.66;5027149;28;20220;-73
2022/11/20 06:10:02;;;;;;;14.27;9.38;;;;;;;0.35;95.92;100505.50;5031354;28;20739;-72
2022/11/20 06:12:33;;;;;;;17.20;10.73;;;;;;;0.42;95.83;100506.63;5026837;28;20657;-73
2022/11/20 06:15:05;;;;;;;23.35;10.82;;;;;;;0.43;95.90;100509.13;5034138;28;20172;-73
2022/11/20 06:17:34;;;;;;;15.80;10.40;;;;;;;0.29;96.37;100501.59;5039011;28;20714;-73
2022/11/20 06:20:03;;;;;;;14.30;9.35;;;;;;;0.45;96.42;100498.31;5037150;28;20197;-74
2022/11/20 06:22:33;;;;;;;19.00;11.23;;;;;;;0.40;96.21;100500.59;5034022;28;20202;-73
2022/11/20 06:25:01;;;;;;;18.88;11.05;;;;;;;0.49;96.24;100502.38;5040066;28;20204;-74
2022/11/20 06:27:30;;;;;;;12.25;9.10;;;;;;;0.52;95.79;100503.91;5034398;28;20189;-73
2022/11/20 06:29:59;;;;;;;20.58;10.55;;;;;;;0.60;95.71;100509.31;5040118;28;20251;-73
2022/11/20 06:32:29;;;;;;;19.33;9.90;;;;;;;0.51;95.12;100504.88;5032955;28;20193;-73
2022/11/20 06:34:58;;;;;;;23.38;11.05;;;;;;;0.55;95.68;100509.78;5033385;28;20598;-73
2022/11/20 06:37:27;;;;;;;18.13;10.68;;;;;;;0.42;95.80;100510.13;5040441;28;20239;-74
2022/11/20 06:39:56;;;;;;;17.35;11.25;;;;;;;0.51;96.50;100499.56;5035808;28;20193;-75
2022/11/20 06:42:25;;;;;;;13.45;9.50;;;;;;;0.59;96.16;100502.31;5033351;28;20201;-73
2022/11/20 06:44:54;;;;;;;14.68;10.23;;;;;;;0.55;95.43;100506.25;5043933;28;20230;-74
2022/11/20 06:47:23;;;;;;;15.43;9.88;;;;;;;0.52;96.32;100503.91;5048518;28;20197;-72
2022/11/20 06:49:53;;;;;;;17.63;10.50;;;;;;;0.65;95.68;100501.72;5031923;28;20197;-72
2022/11/20 06:52:22;;;;;;;15.13;9.85;;;;;;;0.55;95.90;100496.47;5049795;28;20211;-73
2022/11/20 06:54:52;;;;;;;18.35;9.32;;;;;;;0.69;96.68;100492.47;5041611;28;20204;-73
2022/11/20 06:57:21;;;;;;;15.73;8.90;;;;;;;0.82;94.94;100492.97;5026064;28;20185;-73
2022/11/20 06:59:50;;;;;;;18.58;12.18;;;;;;;0.64;95.32;100498.22;5037575;28;20246;-73
2022/11/20 07:02:19;;;;;;;17.45;11.48;;;;;;;0.78;95.70;100499.56;5285313;22;20297;-74
2022/11/20 07:04:49;;;;;;;15.15;8.65;;;;;;;0.92;95.13;100493.72;5053058;28;20195;-75
2022/11/20 07:07:20;;;;;;;18.40;11.82;;;;;;;1.01;94.39;100495.50;5053565;28;20188;-74
2022/11/20 07:09:49;;;;;;;17.38;10.30;;;;;;;0.96;94.00;100494.28;5053700;28;20692;-74
2022/11/20 07:12:17;;;;;;;21.05;12.02;;;;;;;0.92;94.81;100493.72;5036881;28;20321;-75
2022/11/20 07:14:46;;;;;;;22.55;11.98;;;;;;;0.91;94.81;100492.06;5033284;28;20196;-74
2022/11/20 07:17:15;;;;;;;22.20;12.90;;;;;;;0.90;94.44;100495.72;5033171;28;20558;-74
2022/11/20 07:19:44;;;;;;;18.15;10.77;;;;;;;0.98;94.06;100495.78;5033452;28;20248;-75
2022/11/20 07:22:13;;;;;;;23.67;10.40;;;;;;;0.96;93.81;100500.44;5032770;28;20296;-73
2022/11/20 07:24:43;;;;;;;20.10;12.77;;;;;;;1.03;93.61;100501.50;5033074;28;20599;-74
2022/11/20 07:27:13;;;;;;;18.30;11.35;;;;;;;0.87;93.82;100496.03;5033261;28;20192;-74
2022/11/20 07:29:42;;;;;;;16.67;11.45;;;;;;;1.06;93.11;100501.22;5033235;28;20236;-73
2022/11/20 07:32:11;;;;;;;22.27;11.48;;;;;;;0.83;93.42;100499.94;5033379;28;20296;-74
2022/11/20 07:34:40;;;;;;;16.75;12.38;;;;;;;0.83;93.59;100498.13;5033343;28;20665;-73
2022/11/20 07:37:09;;;;;;;24.67;11.85;;;;;;;0.97;94.12;100502.09;5033627;28;20276;-76
2022/11/20 07:39:38;;;;;;;15.52;9.93;;;;;;;0.99;94.02;100494.81;5033451;28;20247;-74
2022/11/20 07:42:10;;;;;;;22.77;13.43;;;;;;;1.20;93.39;100492.69;5033446;28;20259;-74
2022/11/20 07:44:39;;;;;;;21.05;12.13;;;;;;;1.12;92.19;100499.75;5036720;28;20177;-75
2022/11/20 07:47:08;;;;;;;23.02;11.73;;;;;;;1.34;92.00;100491.31;5037475;28;20201;-74
2022/11/20 07:49:37;;;;;;;16.27;12.52;;;;;;;1.22;92.39;100485.38;5017653;28;20591;-75
2022/11/20 07:52:06;;;;;;;16.88;10.10;;;;;;;1.29;92.36;100491.78;5017253;28;20202;-73
2022/11/20 07:54:35;;;;;;;21.95;12.80;;;;;;;1.33;92.08;100481.66;5017847;28;20189;-74
2022/11/20 07:57:04;;;;;;;17.27;10.70;;;;;;;1.28;91.15;100479.44;5017395;28;20178;-75
2022/11/20 07:59:34;;;;;;;17.52;10.68;;;;;;;1.22;91.28;100480.03;5017365;28;20201;-74
2022/11/20 08:02:03;;;;;;;22.90;11.40;;;;;;;1.21;90.99;100488.22;5029260;28;20236;-74
2022/11/20 08:04:33;;;;;;;20.90;12.55;;;;;;;1.10;90.24;100486.59;5037454;28;20186;-73
2022/11/20 08:07:02;;;;;;;14.25;9.73;;;;;;;0.96;90.67;100481.81;5037079;28;20186;-74
2022/11/20 08:09:31;;;;;;;19.42;11.40;;;;;;;0.96;91.34;100484.47;5036883;28;20239;-74
2022/11/20 08:14:47;;;;;;;15.50;10.25;;;;;;;1.06;89.49;100481.72;5037011;28;20201;-75
2022/11/20 08:17:16;;;;;;;17.05;9.75;;;;;;;0.93;89.99;100476.75;5036405;28;20189;-74
2022/11/20 08:19:45;;;;;;;27.13;12.15;;;;;;;1.06;90.76;100489.72;5037111;28;20194;-75
2022/11/20 08:22:14;;;;;;;22.80;13.20;;;;;;;0.98;89.55;100482.47;5036478;28;20227;-75
2022/11/20 08:24:43;;;;;;;20.33;14.40;;;;;;;0.90;90.05;100473.56;5036628;28;20236;-76
2022/11/20 08:27:12;;;;;;;21.50;11.57;;;;;;;1.19;89.75;100485.69;5036697;28;20251;-74
2022/11/20 08:29:41;;;;;;;22.92;14.02;;;;;;;1.18;89.09;100478.69;5036814;28;20194;-73
2022/11/20 08:32:12;;;;;;;24.40;13.05;;;;;;;1.07;89.09;100481.56;5036406;28;20646;-74
2022/11/20 08:34:41;;;;;;;19.50;12.38;;;;;;;1.07;88.67;100476.22;5035660;28;20259;-74
2022/11/20 08:37:09;;;;;;;21.15;11.35;;;;;;;1.02;89.04;100467.84;5035853;28;20208;-76
2022/11/20 08:39:38;;;;;;;21.38;12.95;;;;;;;0.97;88.44;100462.13;5036330;28;20185;-74
2022/11/20 08:42:09;;;;;;;24.35;14.38;;;;;;;1.15;88.73;100465.66;5036165;28;20327;-76
2022/11/20 08:44:37;;;;;;;20.77;11.30;;;;;;;1.31;87.61;100468.47;5036790;28;20186;-75
2022/11/20 08:47:06;;;;;;;19.73;13.98;;;;;;;1.35;87.65;100468.19;5036863;28;20680;-76
2022/11/20 08:49:37;;;;;;;16.92;11.25;;;;;;;1.44;86.97;100464.59;5035246;28;20224;-74
2022/11/20 08:52:06;;;;;;;20.13;12.48;;;;;;;1.57;86.86;100473.03;5036317;28;20214;-74
2022/11/20 08:54:35;;;;;;;21.83;13.93;;;;;;;1.46;86.91;100460.75;5035766;28;20193;-74
2022/11/20 08:57:04;;;;;;;20.60;12.20;;;;;;;1.64;86.46;100468.75;5035783;28;20185;-75
2022/11/20 08:59:33;;;;;;;17.50;10.65;;;;;;;1.71;85.76;100475.97;5040514;28;20177;-75
2022/11/20 09:02:21;;;;;;;19.27;11.23;;;;;;;1.69;85.06;100475.28;5047279;28;20451;-72
2022/11/20 09:04:53;;;;;;;14.95;9.25;;;;;;;1.52;85.80;100478.81;5045263;28;20194;-73
2022/11/20 09:07:22;;;;;;;15.05;10.48;;;;;;;1.63;85.94;100477.75;5024042;28;20437;-75
2022/11/20 09:09:51;;;;;;;20.45;12.50;;;;;;;1.69;85.29;100479.81;5041018;28;20239;-74
2022/11/20 09:12:40;;;;;;;21.00;11.50;;;;;;;1.45;85.75;100479.59;5040824;28;20256;-74
2022/11/20 09:15:10;;;;;;;22.02;11.05;;;;;;;1.27;86.86;100476.91;5038400;28;20204;-74
2022/11/20 09:17:39;;;;;;;19.40;10.60;;;;;;;1.37;87.58;100471.50;5038226;28;20558;-74
2022/11/20 09:20:11;;;;;;;16.98;11.40;;;;;;;1.58;86.48;100472.03;5040582;28;20204;-75
2022/11/20 09:22:41;;;;;;;17.15;9.98;;;;;;;1.68;86.64;100483.44;5038981;28;20216;-75
2022/11/20 09:25:10;;;;;;;18.23;10.77;;;;;;;1.62;86.53;100484.06;5037266;28;20638;-73
2022/11/20 09:27:41;;;;;;;13.93;9.77;;;;;;;1.69;86.33;100488.63;5035585;28;20185;-73
2022/11/20 09:30:11;;;;;;;16.40;10.82;;;;;;;1.72;84.93;100482.16;5034960;28;20224;-74
2022/11/20 09:32:40;;;;;;;19.27;11.00;;;;;;;1.72;84.91;100487.47;5034231;28;20677;-75
2022/11/20 09:35:11;;;;;;;15.15;10.07;;;;;;;1.75;85.54;100484.50;5036036;28;20185;-74
2022/11/20 09:38:08;;;;;;;21.92;11.65;;;;;;;1.90;84.81;100476.75;5036711;28;20249;-76
2022/11/20 09:40:41;;;;;;;16.95;11.77;;;;;;;1.88;84.09;100470.75;5039111;28;20219;-75
2022/11/20 09:43:18;;;;;;;12.27;9.32;;;;;;;1.97;83.72;100473.31;5038919;28;20576;-75
2022/11/20 09:45:57;;;;;;;14.43;11.10;;;;;;;2.18;83.38;100465.75;5038930;28;20227;-74
2022/11/20 09:48:43;;;;;;;21.30;10.70;;;;;;;2.28;82.51;100464.81;5039132;28;20193;-75
2022/11/20 09:51:25;;;;;;;18.60;11.10;;;;;;;2.10;82.21;100476.41;5039378;28;20225;-75
2022/11/20 09:54:07;;;;;;;22.77;14.25;;;;;;;2.31;82.79;100468.00;5034790;28;20247;-74
2022/11/20 09:56:41;;;;;;;17.10;9.60;;;;;;;2.29;82.93;100461.13;5035293;28;20657;-75
2022/11/20 09:59:27;;;;;;;14.10;10.90;;;;;;;2.54;82.28;100462.94;5035712;28;20185;-75
2022/11/20 10:01:57;;;;;;;18.08;11.25;;;;;;;2.44;81.28;100457.72;5035371;28;20225;-75
2022/11/20 10:04:27;;;;;;;18.05;10.57;;;;;;;2.48;80.82;100458.22;5034958;28;20201;-74
2022/11/20 10:07:03;;;;;;;19.05;14.05;;;;;;;2.72;80.31;100454.81;5036423;28;20192;-75
2022/11/20 10:09:55;;;;;;;23.90;14.68;;;;;;;2.70;80.74;100452.31;5034591;28;20229;-74
2022/11/20 10:12:32;;;;;;;20.38;13.32;;;;;;;2.61;80.34;100451.44;5034462;28;20213;-74
2022/11/20 10:15:13;;;;;;;21.90;12.35;;;;;;;2.58;80.36;100456.25;5035438;28;20188;-75
2022/11/20 10:18:05;;;;;;;14.73;11.73;;;;;;;2.43;80.61;100455.19;5034656;28;20194;-73
2022/11/20 10:20:44;;;;;;;18.05;12.73;;;;;;;2.52;81.16;100451.56;5034330;28;20185;-74
2022/11/20 10:23:43;;;;;;;18.23;11.05;;;;;;;2.23;81.42;100443.13;5034669;28;20204;-74
2022/11/20 10:26:22;;;;;;;20.95;11.35;;;;;;;2.23;81.80;100445.78;5015309;28;20194;-75
2022/11/20 10:29:04;;;;;;;18.40;13.05;;;;;;;2.32;81.21;100431.47;5050461;28;20201;-76
2022/11/20 10:31:39;;;;;;;17.90;11.90;;;;;;;2.28;81.59;100436.28;5033915;28;20217;-75
2022/11/20 10:34:19;;;;;;;14.07;10.32;;;;;;;2.26;82.08;100429.44;5037749;28;20185;-74
2022/11/20 10:36:56;;;;;;;17.77;10.65;;;;;;;2.14;81.97;100423.53;5035912;28;20199;-74
2022/11/20 10:39:34;;;;;;;16.20;11.00;;;;;;;2.14;82.81;100420.84;5035107;28;20193;-74
2022/11/20 10:42:09;;;;;;;17.30;11.25;;;;;;;2.25;81.82;100419.75;5038074;28;20220;-73
2022/11/20 10:47:33;;;;;;;21.50;12.05;;;;;;;2.54;82.29;100418.38;5037938;28;20189;-74
2022/11/20 10:50:06;;;;;;;15.65;9.95;;;;;;;2.45;80.62;100415.81;5036503;28;20670;-74
2022/11/20 10:52:44;;;;;;;24.38;11.15;;;;;;;2.57;81.68;100414.53;5035173;28;20217;-74
2022/11/20 10:55:26;;;;;;;15.80;10.93;;;;;;;2.62;81.11;100420.22;5038632;28;20181;-73
2022/11/20 10:58:02;;;;;;;13.63;10.30;;;;;;;2.87;80.17;100413.94;5038964;28;20189;-75
2022/11/20 11:00:33;;;;;;;19.95;11.35;;;;;;;2.80;80.34;100410.25;5039460;28;20193;-75
2022/11/20 11:03:03;;;;;;;17.67;11.23;;;;;;;3.01;79.64;100413.28;5046234;28;20232;-75
2022/11/20 11:05:39;;;;;;;14.00;8.52;;;;;;;2.98;79.84;100421.66;5048964;28;20201;-74
2022/11/20 11:08:14;;;;;;;21.48;10.52;;;;;;;2.89;79.63;100425.31;5044273;28;20539;-74
2022/11/20 11:10:51;;;;;;;18.60;12.18;;;;;;;2.73;80.20;100419.91;5043126;28;20216;-74
2022/11/20 11:13:24;;;;;;;17.85;10.52;;;;;;;2.68;80.18;100421.41;5034390;28;20182;-74
2022/11/20 11:15:54;;;;;;;13.88;9.70;;;;;;;2.73;80.39;100411.91;5036226;28;20200;-74
2022/11/20 11:18:29;;;;;;;15.68;10.45;;;;;;;2.73;80.07;100414.56;5038311;28;20536;-75
2022/11/20 11:21:00;;;;;;;17.73;11.30;;;;;;;2.78;80.22;100412.25;5037913;28;20304;-74
2022/11/20 11:23:35;;;;;;;16.02;10.60;;;;;;;2.44;81.06;100412.31;5041537;28;20551;-75
2022/11/20 11:26:07;;;;;;;17.15;10.10;;;;;;;2.69;81.51;100409.72;5050358;28;20648;-76
2022/11/20 11:28:36;;;;;;;14.27;8.63;;;;;;;2.55;80.36;100416.53;5056191;28;20188;-74
2022/11/20 11:31:05;;;;;;;15.23;9.63;;;;;;;2.61;80.57;100410.56;5045564;28;20689;-75
2022/11/20 11:33:34;;;;;;;16.17;9.15;;;;;;;2.53;80.06;100413.19;5051634;28;20193;-75
2022/11/20 11:36:15;;;;;;;15.13;8.05;;;;;;;2.19;80.97;100413.22;5043543;28;20235;-75
2022/11/20 11:38:45;;;;;;;21.98;9.48;;;1.20;99.90;;;2.43;81.93;100407.13;5044551;28;20189;-74
2022/11/20 11:41:21;;;;;;;12.98;7.85;;;2.30;99.90;;;2.37;80.46;100397.13;5038602;28;20221;-74
2022/11/20 11:46:53;;;;;;;12.40;8.77;;;2.40;99.90;;;2.48;81.48;100394.13;5038025;28;20189;-75
2022/11/20 11:49:22;;;;;;;12.60;9.48;;;2.50;99.90;;;2.22;82.08;100398.72;5037897;28;20193;-73
2022/11/20 11:52:14;;;;;;;17.05;10.23;;;2.40;99.90;;;2.05;84.03;100397.78;5037433;28;20769;-74